Time;durP1;ratioP1;P1;durP2;ratioP2;P2;SDS_P1;SDS_P2;PMS_P1;PMS_P2;Temp;Humidity;BMP_temperature;BMP_pressure;BME280_temperature;BME280_humidity;BME280_pressure;Samples;Min_cycle;Max_cycle;Signal;HPM_P1;HPM_P2
2021/06/02 00:02:10;;;;;;;3.10;1.73;;;;;;;13.01;55.09;96455.09;4963348;28;20039;-58
2021/06/02 00:04:43;;;;;;;4.63;1.80;;;;;;;12.84;55.68;96453.06;4971103;28;20047;-61
2021/06/02 00:07:11;;;;;;;2.92;1.90;;;;;;;12.18;59.35;96457.47;4966595;28;20042;-60
2021/06/02 00:09:37;;;;;;;3.80;1.95;;;;;;;11.97;60.29;96454.56;4965249;28;20504;-56
2021/06/02 00:12:08;;;;;;;4.38;2.17;;;;;;;11.81;61.93;96455.63;4960521;28;20142;-62
2021/06/02 00:14:34;;;;;;;3.83;2.38;;;;;;;11.54;62.40;96455.00;4969219;28;20049;-58
2021/06/02 00:16:59;;;;;;;3.75;2.05;;;;;;;11.65;62.30;96452.38;4974513;28;20034;-58
2021/06/02 00:19:25;;;;;;;5.57;2.60;;;;;;;11.71;62.61;96447.31;4978803;28;20066;-57
2021/06/02 00:21:53;;;;;;;4.97;2.45;;;;;;;11.73;62.37;96447.72;4974607;28;20043;-57
2021/06/02 00:24:19;;;;;;;6.15;2.38;;;;;;;11.81;61.66;96455.63;4977740;28;20407;-61
2021/06/02 00:26:45;;;;;;;5.43;2.60;;;;;;;11.98;61.37;96453.41;4984497;28;20104;-59
2021/06/02 00:29:12;;;;;;;6.68;2.88;;;;;;;11.97;60.57;96455.34;4978150;28;20052;-58
2021/06/02 00:31:39;;;;;;;6.50;2.78;;;;;;;11.90;60.59;96457.25;4983585;28;20045;-60
2021/06/02 00:34:06;;;;;;;6.10;3.00;;;;;;;11.86;61.34;96449.75;4976321;28;20137;-59
2021/06/02 00:36:31;;;;;;;5.70;2.80;;;;;;;11.84;60.98;96454.84;4997505;28;20140;-58
2021/06/02 00:38:58;;;;;;;4.80;2.83;;;;;;;11.66;62.42;96449.22;4982916;28;20534;-58
2021/06/02 00:41:24;;;;;;;7.50;2.85;;;;;;;11.60;63.16;96452.72;4978388;28;20141;-59
2021/06/02 00:43:50;;;;;;;8.05;3.20;;;;;;;11.41;63.67;96456.44;4983368;28;20085;-60
2021/06/02 00:46:18;;;;;;;6.65;2.95;;;;;;;11.15;65.04;96452.69;4977783;28;20129;-59
2021/06/02 00:48:44;;;;;;;5.07;3.25;;;;;;;11.09;64.96;96456.91;4977293;28;20389;-61
2021/06/02 00:51:10;;;;;;;6.57;2.75;;;;;;;10.94;65.70;96457.94;4974262;28;20038;-59
2021/06/02 00:53:36;;;;;;;9.85;4.93;;;;;;;10.91;67.61;96467.69;4978572;28;20038;-62
2021/06/02 00:56:04;;;;;;;7.72;2.97;;;;;;;11.01;67.35;96464.28;4975040;28;20046;-60
2021/06/02 00:58:36;;;;;;;3.92;2.65;;;;;;;10.99;65.56;96465.84;4972225;28;20045;-60
2021/06/02 01:01:03;;;;;;;7.03;2.65;;;;;;;10.87;65.48;96466.88;4976131;28;20058;-60
2021/06/02 01:03:29;;;;;;;5.00;2.55;;;;;;;10.75;66.43;96467.09;4962368;28;20101;-57
2021/06/02 01:05:56;;;;;;;7.45;3.20;;;;;;;10.76;66.79;96463.22;4965241;28;20069;-61
2021/06/02 01:08:22;;;;;;;5.03;2.80;;;;;;;10.70;66.69;96466.28;4975318;28;20049;-58
2021/06/02 01:10:51;;;;;;;4.53;3.17;;;;;;;10.74;67.13;96474.53;4962351;28;20587;-58
2021/06/02 01:13:19;;;;;;;5.27;2.80;;;;;;;10.67;65.99;96468.97;4971175;28;20104;-60
2021/06/02 01:15:51;;;;;;;5.30;2.85;;;;;;;10.63;66.95;96468.94;4982479;28;20297;-60
2021/06/02 01:18:20;;;;;;;4.03;2.78;;;;;;;10.56;66.01;96477.06;4982164;28;20039;-57
2021/06/02 01:20:48;;;;;;;6.13;3.20;;;;;;;10.32;68.52;96470.88;4983054;28;20096;-58
2021/06/02 01:23:14;;;;;;;7.88;3.10;;;;;;;10.24;68.80;96479.34;4975767;28;20042;-60
2021/06/02 01:25:41;;;;;;;3.88;2.80;;;;;;;10.13;69.05;96485.44;4980566;28;20435;-60
2021/06/02 01:28:07;;;;;;;6.80;2.42;;;;;;;10.05;67.43;96483.78;4978925;28;20105;-60
2021/06/02 01:30:34;;;;;;;4.80;2.80;;;;;;;9.98;68.08;96483.66;4992134;28;20376;-59
2021/06/02 01:33:05;;;;;;;5.10;2.80;;;;;;;9.90;69.58;96487.44;4980689;28;20088;-59
2021/06/02 01:35:40;;;;;;;9.35;3.42;;;;;;;9.74;69.95;96490.31;4974621;28;20096;-60
2021/06/02 01:38:22;;;;;;;7.25;3.50;;;;;;;9.68;69.44;96484.34;4978145;28;20034;-60
2021/06/02 01:41:09;;;;;;;5.40;3.35;;;;;;;9.54;72.19;96503.25;4981577;28;20719;-60
2021/06/02 01:43:50;;;;;;;4.93;2.97;;;;;;;9.52;71.59;96498.16;4972562;28;20047;-58
2021/06/02 01:46:43;;;;;;;5.15;3.28;;;;;;;9.62;72.37;96494.03;4973871;28;20057;-58
2021/06/02 01:49:30;;;;;;;7.75;4.72;;;;;;;9.47;73.73;96497.66;4972087;28;20058;-61
2021/06/02 01:52:17;;;;;;;6.18;2.90;;;;;;;9.29;74.46;96500.91;4978128;28;20042;-59
2021/06/02 01:55:27;;;;;;;7.05;3.65;;;;;;;9.19;75.91;96509.69;4957773;28;20085;-58
2021/06/02 01:57:52;;;;;;;5.70;3.20;;;;;;;9.11;76.15;96505.22;4978779;28;20133;-59
2021/06/02 02:00:36;;;;;;;5.07;2.90;;;;;;;9.00;74.60;96502.28;4975120;28;20149;-58
2021/06/02 02:03:38;;;;;;;7.28;4.00;;;;;;;8.70;77.70;96508.34;4978903;28;20317;-61
2021/06/02 02:06:22;;;;;;;10.38;3.78;;;;;;;8.55;78.71;96501.81;4976946;28;20437;-60
2021/06/02 02:08:58;;;;;;;7.68;3.30;;;;;;;8.38;79.71;96507.63;4982745;28;20038;-58
2021/06/02 02:11:35;;;;;;;5.05;3.05;;;;;;;8.53;80.38;96515.00;4977357;28;20579;-58
2021/06/02 02:14:38;;;;;;;6.32;3.80;;;;;;;8.55;80.15;96501.00;4979627;28;20030;-58
2021/06/02 02:17:21;;;;;;;6.57;4.85;;;;;;;8.47;79.71;96505.53;4976773;28;20100;-61
2021/06/02 02:20:02;;;;;;;9.57;4.50;;;;;;;8.27;80.32;96509.34;4980686;28;20039;-58
2021/06/02 02:22:52;;;;;;;6.97;4.40;;;;;;;8.23;80.09;96518.25;4972616;28;20049;-59
2021/06/02 02:25:24;;;;;;;7.28;3.72;;;;;;;8.40;81.30;96519.78;4976412;28;20499;-58
2021/06/02 02:28:15;;;;;;;6.88;3.58;;;;;;;8.45;78.37;96524.19;4981384;28;20053;-60
2021/06/02 02:31:02;;;;;;;6.00;3.58;;;;;;;8.52;78.56;96529.81;4980913;28;20045;-61
2021/06/02 02:33:49;;;;;;;5.38;3.25;;;;;;;8.54;75.61;96524.00;4976982;28;20642;-57
2021/06/02 02:36:21;;;;;;;5.72;3.38;;;;;;;8.71;78.13;96536.44;4975131;28;20081;-57
2021/06/02 02:39:09;;;;;;;6.10;3.70;;;;;;;8.75;76.35;96535.38;4976970;28;20038;-59
2021/06/02 02:41:44;;;;;;;9.93;3.58;;;;;;;8.62;76.63;96528.44;4981395;28;20120;-56
2021/06/02 02:44:28;;;;;;;8.80;3.70;;;;;;;8.33;78.12;96532.47;4969592;28;20104;-59
2021/06/02 02:47:35;;;;;;;13.80;7.25;;;;;;;8.19;78.35;96530.19;4978023;28;20047;-59
2021/06/02 02:50:03;;;;;;;7.82;4.22;;;;;;;8.08;80.71;96537.34;4951100;29;20043;-59
2021/06/02 02:52:41;;;;;;;8.45;4.20;;;;;;;7.81;83.22;96540.66;4969442;28;20125;-59
2021/06/02 02:55:12;;;;;;;6.93;3.90;;;;;;;8.03;82.48;96547.41;4974971;28;20052;-60
2021/06/02 02:57:54;;;;;;;5.47;3.67;;;;;;;8.18;81.84;96539.56;4975549;28;20086;-56
2021/06/02 03:00:23;;;;;;;6.30;3.33;;;;;;;8.23;79.96;96542.00;4973673;28;20054;-57
2021/06/02 03:03:13;;;;;;;5.77;3.40;;;;;;;8.34;79.66;96539.53;4967487;28;20423;-59
2021/06/02 03:06:07;;;;;;;4.22;3.13;;;;;;;8.31;79.72;96543.75;4979318;28;20042;-59
2021/06/02 03:09:00;;;;;;;8.27;3.78;;;;;;;8.34;79.97;96545.75;4957639;28;20042;-58
2021/06/02 03:11:41;;;;;;;6.68;3.28;;;;;;;8.39;79.87;96555.59;4969504;28;20191;-59
2021/06/02 03:14:25;;;;;;;4.75;3.20;;;;;;;8.48;79.65;96566.34;4969636;28;20039;-60
2021/06/02 03:16:58;;;;;;;6.85;3.17;;;;;;;8.58;79.35;96576.72;4972427;28;20050;-60
2021/06/02 03:19:38;;;;;;;7.53;3.70;;;;;;;8.71;79.13;96574.66;4969502;28;20675;-59
2021/06/02 03:22:07;;;;;;;5.30;3.45;;;;;;;8.69;77.33;96575.00;4976075;28;20042;-59
2021/06/02 03:24:52;;;;;;;4.35;2.97;;;;;;;8.75;76.93;96586.44;4981372;28;20098;-58
2021/06/02 03:27:29;;;;;;;6.22;3.00;;;;;;;8.84;76.76;96580.78;4976867;28;20190;-61
2021/06/02 03:30:10;;;;;;;5.03;3.33;;;;;;;8.84;76.20;96586.25;4983819;28;20054;-58
2021/06/02 03:33:13;;;;;;;4.82;3.17;;;;;;;8.50;76.33;96591.34;4975015;28;20038;-60
2021/06/02 03:35:55;;;;;;;7.07;3.17;;;;;;;8.07;79.09;96595.78;4975002;28;20069;-60
2021/06/02 03:38:20;;;;;;;6.80;3.35;;;;;;;7.95;79.59;96588.50;4975709;28;20045;-60
2021/06/02 03:41:05;;;;;;;7.38;3.33;;;;;;;7.68;80.44;96581.97;4972884;28;20131;-61
2021/06/02 03:43:38;;;;;;;5.25;3.72;;;;;;;7.20;84.04;96590.84;4962910;28;20130;-60
2021/06/02 03:46:16;;;;;;;6.55;4.45;;;;;;;7.50;84.21;96592.41;4976700;28;20667;-61
2021/06/02 03:49:09;;;;;;;6.53;3.47;;;;;;;8.06;81.65;96591.47;4984143;28;20380;-58
2021/06/02 03:51:57;;;;;;;7.32;3.78;;;;;;;8.27;80.70;96599.38;4975453;28;20500;-61
2021/06/02 03:54:33;;;;;;;4.63;3.35;;;;;;;8.42;79.22;96602.09;4979434;28;20615;-57
2021/06/02 03:57:12;;;;;;;7.15;3.67;;;;;;;8.59;78.38;96605.63;4980307;28;20215;-60
2021/06/02 03:59:57;;;;;;;7.15;3.53;;;;;;;8.70;78.47;96603.13;4974425;28;20822;-60
2021/06/02 04:02:46;;;;;;;6.40;3.33;;;;;;;8.82;77.75;96616.63;4989943;28;20315;-61
2021/06/02 04:05:49;;;;;;;6.97;3.37;;;;;;;8.92;77.63;96613.34;4978774;28;20050;-60
2021/06/02 04:08:48;;;;;;;8.93;3.92;;;;;;;9.11;76.80;96607.13;4983373;28;20785;-57
2021/06/02 04:11:35;;;;;;;8.27;3.63;;;;;;;9.32;75.65;96606.75;4961638;28;20050;-60
2021/06/02 04:14:07;;;;;;;5.70;3.47;;;;;;;9.55;75.02;96615.00;4981381;28;20355;-58
2021/06/02 04:16:36;;;;;;;7.88;3.20;;;;;;;9.67;74.55;96619.53;4979327;28;20182;-59
2021/06/02 04:19:06;;;;;;;6.53;3.40;;;;;;;9.77;74.35;96616.19;4973030;28;20051;-61
2021/06/02 04:21:34;;;;;;;11.07;3.80;;;;;;;9.94;73.97;96620.41;4982382;28;20038;-59
2021/06/02 04:24:05;;;;;;;9.48;3.97;;;;;;;10.06;72.98;96621.38;4982884;28;20042;-59
2021/06/02 04:26:33;;;;;;;9.27;3.90;;;;;;;10.13;72.84;96626.97;4977127;28;20133;-60
2021/06/02 04:29:01;;;;;;;8.55;3.63;;;;;;;10.00;73.72;96628.31;4976048;28;20384;-61
2021/06/02 04:31:29;;;;;;;7.65;3.38;;;;;;;9.86;73.88;96626.88;4974845;28;20533;-61
2021/06/02 04:34:00;;;;;;;9.02;3.60;;;;;;;9.09;78.96;96633.22;4983138;28;20046;-58
2021/06/02 04:36:26;;;;;;;6.32;4.03;;;;;;;9.03;78.90;96637.38;4976349;28;20442;-60
2021/06/02 04:38:54;;;;;;;6.57;4.30;;;;;;;8.95;79.04;96639.19;4976639;28;20074;-60
2021/06/02 04:41:23;;;;;;;7.00;3.38;;;;;;;9.07;78.35;96644.50;4977382;28;20046;-61
2021/06/02 04:43:50;;;;;;;6.63;3.50;;;;;;;8.97;79.41;96636.88;4988257;28;20046;-58
2021/06/02 04:46:19;;;;;;;7.28;3.38;;;;;;;9.10;78.63;96638.31;4986947;28;20550;-59
2021/06/02 04:48:47;;;;;;;5.85;3.90;;;;;;;9.62;77.14;96638.19;4986134;28;20077;-57
2021/06/02 04:52:07;;;;;;;7.65;3.47;;;;;;;10.66;72.74;96629.81;4978318;28;20046;-60
2021/06/02 04:54:42;;;;;;;7.90;3.42;;;;;;;11.33;69.68;96625.59;4961298;28;20166;-58
2021/06/02 04:57:23;;;;;;;;;;;;;;;12.80;64.06;96632.50;4959257;28;20042;-59
2021/06/02 05:00:19;;;;;;;5.40;2.65;;;;;;;14.27;59.45;96626.72;4976218;28;19922;-59
2021/06/02 05:03:22;;;;;;;4.97;2.90;;;;;;;13.46;60.80;96626.16;4973697;28;20416;-59
2021/06/02 05:06:05;;;;;;;7.30;3.20;;;;;;;14.16;59.03;96625.94;4976567;28;20609;-59
2021/06/02 05:08:55;;;;;;;4.60;2.80;;;;;;;14.89;56.74;96633.03;4973434;28;20143;-61
2021/06/02 05:11:45;;;;;;;6.07;2.58;;;;;;;18.00;47.99;96620.00;4965323;28;20045;-60
2021/06/02 05:14:55;;;;;;;7.63;3.33;;;;;;;16.73;50.51;96619.06;4958085;28;20038;-59
2021/06/02 05:17:54;;;;;;;4.90;3.15;;;;;;;16.82;51.62;96617.38;4957538;28;20070;-61
2021/06/02 05:24:00;;;;;;;5.05;2.90;;;;;;;16.90;53.15;96625.66;4951584;28;20051;-60
2021/06/02 05:26:38;;;;;;;3.22;2.63;;;;;;;17.29;50.67;96630.00;4974416;28;20606;-61
2021/06/02 05:29:31;;;;;;;6.35;2.55;;;;;;;17.68;50.49;96631.47;4980508;28;20052;-60
2021/06/02 05:32:18;;;;;;;4.82;2.60;;;;;;;16.58;53.77;96635.78;4977023;28;20038;-59
2021/06/02 05:35:22;;;;;;;10.05;2.40;;;;;;;16.87;53.77;96637.53;4978075;28;20181;-59
2021/06/02 05:38:25;;;;;;;4.47;2.72;;;;;;;19.72;46.23;96632.91;4979904;28;20042;-59
2021/06/02 05:41:02;;;;;;;7.20;2.53;;;;;;;21.26;42.32;96628.47;4975597;28;20042;-59
2021/06/02 05:43:58;;;;;;;8.23;2.53;;;;;;;19.75;45.42;96626.50;4976204;28;20049;-59
2021/06/02 05:47:00;;;;;;;7.35;2.97;;;;;;;20.04;46.23;96628.66;4966737;28;20870;-59
2021/06/02 05:49:53;;;;;;;5.60;2.88;;;;;;;19.67;45.86;96631.41;4974175;28;20053;-58
2021/06/02 05:52:40;;;;;;;4.82;2.78;;;;;;;20.27;44.87;96633.31;4956891;28;20043;-60
2021/06/02 05:55:11;;;;;;;4.57;3.22;;;;;;;21.35;41.33;96628.63;4957291;28;20452;-60
2021/06/02 05:58:23;;;;;;;7.10;3.00;;;;;;;19.27;46.47;96633.41;4970966;28;20046;-60
2021/06/02 06:01:12;;;;;;;5.88;3.00;;;;;;;19.53;45.17;96636.47;4928738;29;20130;-60
2021/06/02 06:03:59;;;;;;;4.90;2.58;;;;;;;22.27;39.15;96626.41;4939293;29;20135;-58
2021/06/02 06:06:37;;;;;;;12.90;3.25;;;;;;;21.53;41.30;96630.16;4962046;28;20038;-61
2021/06/02 06:09:21;;;;;;;8.65;2.80;;;;;;;24.28;36.19;96626.22;4979418;28;20110;-60
2021/06/02 06:11:53;;;;;;;6.97;2.90;;;;;;;25.34;33.75;96622.31;4970519;28;20481;-61
2021/06/02 06:14:56;;;;;;;5.10;2.80;;;;;;;23.92;35.09;96633.22;4970230;28;20042;-60
2021/06/02 06:17:31;;;;;;;5.88;3.08;;;;;;;24.91;33.97;96624.13;4967757;28;20051;-62
2021/06/02 06:20:38;;;;;;;4.95;2.55;;;;;;;25.60;32.09;96621.97;4978960;28;20050;-60
2021/06/02 06:23:12;;;;;;;5.05;2.70;;;;;;;26.78;29.72;96626.94;4958511;28;20047;-62
2021/06/02 06:25:58;;;;;;;5.10;2.47;;;;;;;26.98;29.77;96632.72;4962679;28;20035;-59
2021/06/02 06:28:33;;;;;;;5.72;2.20;;;;;;;28.06;27.77;96629.97;4970707;28;20472;-59
2021/06/02 06:30:59;;;;;;;5.40;2.17;;;;;;;27.40;29.24;96626.19;4976417;28;20050;-59
2021/06/02 06:33:27;;;;;;;6.63;2.60;;;;;;;27.72;28.56;96625.75;4976113;28;20109;-58
2021/06/02 06:35:55;;;;;;;6.60;2.70;;;;;;;28.65;26.92;96628.34;4974138;28;20074;-60
2021/06/02 06:38:28;;;;;;;7.40;2.83;;;;;;;22.99;36.59;96640.03;4973745;28;20104;-58
2021/06/02 06:40:54;;;;;;;5.57;2.50;;;;;;;25.00;32.84;96643.72;4979167;28;20487;-59
2021/06/02 06:43:22;;;;;;;7.40;2.67;;;;;;;26.45;30.29;96633.28;4967150;28;20041;-59
2021/06/02 06:45:53;;;;;;;9.43;3.00;;;;;;;27.77;27.42;96633.53;4980358;28;20055;-59
2021/06/02 06:48:21;;;;;;;10.68;2.88;;;;;;;28.19;26.99;96635.31;4967752;28;20446;-60
2021/06/02 06:50:52;;;;;;;8.37;2.83;;;;;;;27.93;27.10;96635.09;4975672;28;20121;-59
2021/06/02 06:53:19;;;;;;;18.42;2.95;;;;;;;28.54;26.22;96629.75;4970320;28;20038;-59
2021/06/02 06:55:46;;;;;;;7.78;2.20;;;;;;;29.57;24.84;96629.03;4975859;28;20046;-59
2021/06/02 06:58:12;;;;;;;5.22;2.35;;;;;;;25.97;29.10;96635.97;4970823;28;20045;-60
2021/06/02 07:00:38;;;;;;;5.22;2.30;;;;;;;27.21;27.41;96631.16;4975712;28;20049;-61
2021/06/02 07:03:04;;;;;;;7.00;2.53;;;;;;;23.14;32.50;96634.75;4972638;28;20046;-63
2021/06/02 07:05:31;;;;;;;4.72;2.22;;;;;;;24.80;31.52;96630.94;4980908;28;20042;-62
2021/06/02 07:07:57;;;;;;;5.00;2.65;;;;;;;26.29;28.30;96632.44;4980948;28;20038;-59
2021/06/02 07:10:23;;;;;;;12.23;2.83;;;;;;;25.05;30.59;96633.91;4974982;28;20061;-61
2021/06/02 07:12:49;;;;;;;3.88;2.38;;;;;;;26.07;29.02;96629.88;4972446;28;20125;-60
2021/06/02 07:15:16;;;;;;;7.32;2.25;;;;;;;27.52;27.57;96630.00;4974723;28;20105;-58
2021/06/02 07:17:49;;;;;;;5.88;2.30;;;;;;;27.01;28.35;96630.97;4970953;28;20148;-59
2021/06/02 07:20:19;;;;;;;7.18;2.60;;;;;;;23.26;34.26;96639.53;4956530;28;20054;-59
2021/06/02 07:22:47;;;;;;;5.90;3.00;;;;;;;24.16;32.21;96639.06;4961400;28;20051;-61
2021/06/02 07:25:17;;;;;;;4.82;2.47;;;;;;;26.11;29.79;96624.84;4975140;28;20069;-63
2021/06/02 07:27:44;;;;;;;12.07;2.78;;;;;;;26.39;28.29;96627.53;4987042;28;20034;-62
2021/06/02 07:30:11;;;;;;;4.68;2.28;;;;;;;28.24;25.90;96636.66;4980041;28;20124;-61
2021/06/02 07:32:36;;;;;;;8.55;2.75;;;;;;;28.77;25.47;96630.84;4975942;28;20039;-61
2021/06/02 07:35:02;;;;;;;8.77;2.58;;;;;;;24.66;32.46;96631.53;4971197;28;20185;-64
2021/06/02 07:37:28;;;;;;;4.70;2.35;;;;;;;27.72;27.09;96634.97;4982713;28;20111;-59
2021/06/02 07:39:53;;;;;;;6.15;2.40;;;;;;;28.42;26.01;96628.75;4983735;28;20058;-60
2021/06/02 07:42:18;;;;;;;4.45;2.20;;;;;;;29.45;24.81;96625.31;4970356;28;20070;-61
2021/06/02 07:44:44;;;;;;;14.75;2.60;;;;;;;30.43;23.87;96630.16;4983752;28;20046;-61
2021/06/02 07:47:09;;;;;;;8.10;2.30;;;;;;;29.64;24.57;96637.06;4977799;28;20072;-60
2021/06/02 07:49:35;;;;;;;6.53;2.22;;;;;;;28.30;26.01;96637.53;4964659;28;20046;-60
2021/06/02 07:52:01;;;;;;;6.78;2.65;;;;;;;30.16;24.07;96642.75;4978335;28;20121;-59
2021/06/02 07:54:28;;;;;;;9.07;2.90;;;;;;;28.86;26.18;96641.19;4972691;28;20786;-60
2021/06/02 07:56:53;;;;;;;19.30;9.88;;;;;;;27.51;28.71;96641.72;4977627;28;20053;-60
2021/06/02 07:59:19;;;;;;;8.30;4.03;;;;;;;27.54;28.56;96635.91;4960353;28;20043;-59
2021/06/02 08:01:46;;;;;;;6.57;3.05;;;;;;;27.25;28.76;96636.59;4979329;28;20047;-61
2021/06/02 08:04:12;;;;;;;4.75;3.08;;;;;;;25.70;31.52;96641.13;4978799;28;20512;-60
2021/06/02 08:06:37;;;;;;;3.83;2.50;;;;;;;26.31;31.11;96641.16;4982412;28;20062;-59
2021/06/02 08:09:04;;;;;;;3.83;2.47;;;;;;;25.13;33.20;96649.97;4977296;28;20041;-62
2021/06/02 08:11:29;;;;;;;6.90;4.35;;;;;;;24.44;34.99;96648.38;4978414;28;20057;-60
2021/06/02 08:13:54;;;;;;;11.63;5.20;;;;;;;24.80;34.24;96641.38;4984136;28;20050;-62
2021/06/02 08:16:20;;;;;;;7.65;2.85;;;;;;;25.26;34.17;96641.44;4962466;28;20047;-62
2021/06/02 08:18:45;;;;;;;4.32;2.85;;;;;;;24.61;33.75;96646.13;4967536;28;20138;-60
2021/06/02 08:21:11;;;;;;;5.53;2.97;;;;;;;24.46;35.29;96645.13;4958435;28;20043;-59
2021/06/02 08:23:36;;;;;;;8.13;2.80;;;;;;;24.09;36.10;96642.16;4965001;28;20074;-59
2021/06/02 08:26:02;;;;;;;8.25;2.83;;;;;;;24.19;35.14;96641.72;4964784;28;20492;-58
2021/06/02 08:28:28;;;;;;;9.38;3.05;;;;;;;23.45;36.70;96643.28;4976613;28;20050;-58
2021/06/02 08:30:53;;;;;;;9.15;3.17;;;;;;;23.69;37.24;96646.38;4968736;28;20039;-59
2021/06/02 08:33:19;;;;;;;8.40;2.97;;;;;;;24.12;36.13;96647.59;4957911;28;20122;-58
2021/06/02 08:35:44;;;;;;;5.68;2.90;;;;;;;24.82;35.56;96644.47;4965328;28;20043;-62
2021/06/02 08:38:10;;;;;;;10.82;3.80;;;;;;;24.86;34.18;96647.13;4962342;28;20404;-61
2021/06/02 08:40:36;;;;;;;5.75;2.92;;;;;;;25.21;34.29;96642.06;4968188;28;20038;-60
2021/06/02 08:43:02;;;;;;;6.35;3.08;;;;;;;25.61;33.27;96643.16;4978206;28;20062;-60
2021/06/02 08:45:28;;;;;;;6.05;2.85;;;;;;;25.65;33.31;96641.75;4972218;28;20532;-60
2021/06/02 08:47:54;;;;;;;7.63;2.75;;;;;;;25.67;33.21;96641.28;4982027;28;20057;-60
2021/06/02 08:50:20;;;;;;;7.60;2.58;;;;;;;25.88;33.27;96645.16;4968218;28;20048;-58
2021/06/02 08:52:46;;;;;;;5.05;2.47;;;;;;;26.40;33.13;96639.53;4982377;28;20042;-60
2021/06/02 08:55:16;;;;;;;12.73;3.08;;;;;;;26.45;32.40;96634.09;4975952;28;20038;-62
2021/06/02 08:57:44;;;;;;;5.93;2.55;;;;;;;27.16;31.63;96634.63;4974805;28;20050;-59
2021/06/02 09:00:11;;;;;;;9.57;2.80;;;;;;;24.76;34.64;96641.50;4976802;28;20112;-61
2021/06/02 09:02:38;;;;;;;5.28;2.80;;;;;;;25.96;32.64;96637.22;4975271;28;20050;-60
2021/06/02 09:05:05;;;;;;;9.07;2.75;;;;;;;25.89;33.88;96641.09;4971793;28;20515;-60
2021/06/02 09:07:32;;;;;;;6.72;2.75;;;;;;;26.64;32.35;96628.41;4982198;28;20129;-59
2021/06/02 09:10:01;;;;;;;12.63;3.00;;;;;;;27.26;31.32;96632.53;4982611;28;20065;-59
2021/06/02 09:12:32;;;;;;;5.30;2.50;;;;;;;27.42;30.94;96628.53;4975887;28;20042;-61
2021/06/02 09:15:12;;;;;;;7.10;2.58;;;;;;;27.54;30.39;96635.91;4972510;28;20043;-59
2021/06/02 09:17:57;;;;;;;4.85;2.45;;;;;;;27.57;29.86;96626.53;4960096;28;20493;-58
2021/06/02 09:20:34;;;;;;;7.28;2.53;;;;;;;25.48;33.47;96629.28;4954557;28;20613;-59
2021/06/02 09:23:00;;;;;;;7.55;2.13;;;;;;;26.79;31.39;96628.47;4962310;28;20046;-58
2021/06/02 09:25:26;;;;;;;10.85;2.28;;;;;;;27.20;30.87;96626.78;4957419;28;20134;-60
2021/06/02 09:27:56;;;;;;;6.25;2.65;;;;;;;27.20;31.26;96631.63;4968182;28;20412;-59
2021/06/02 09:30:28;;;;;;;7.50;2.30;;;;;;;27.48;30.64;96634.25;4968955;28;20057;-59
2021/06/02 09:32:59;;;;;;;4.40;1.90;;;;;;;27.26;31.19;96627.72;4981254;28;20036;-59
2021/06/02 09:35:38;;;;;;;13.68;8.13;;;;;;;27.14;31.24;96631.53;4976025;28;20275;-60
2021/06/02 09:38:05;;;;;;;;;;;;;;;27.64;30.59;96633.78;4969386;28;20043;-61
2021/06/02 09:40:35;;;;;;;4.57;2.25;;;;;;;27.71;28.82;96627.00;4981037;28;20275;-60
2021/06/02 09:43:02;;;;;;;8.25;2.20;;;;;;;27.62;29.19;96625.84;4973824;28;20050;-59
2021/06/02 09:45:28;;;;;;;8.20;2.15;;;;;;;27.71;29.12;96624.97;4977993;28;20041;-59
2021/06/02 09:48:00;;;;;;;2.95;1.95;;;;;;;27.39;29.63;96626.69;4981613;28;20400;-60
2021/06/02 09:50:31;;;;;;;4.57;2.35;;;;;;;25.21;32.64;96619.63;4975140;28;20129;-57
2021/06/02 09:52:59;;;;;;;6.63;2.50;;;;;;;26.71;29.49;96622.44;4981541;28;20439;-57
2021/06/02 09:55:28;;;;;;;4.90;2.20;;;;;;;27.30;28.81;96615.50;4973243;28;20575;-59
2021/06/02 09:57:54;;;;;;;8.73;2.10;;;;;;;27.55;29.56;96628.25;4974872;28;20263;-59
2021/06/02 10:00:20;;;;;;;6.53;2.20;;;;;;;27.71;30.17;96624.97;4970859;28;20394;-59
2021/06/02 10:03:00;;;;;;;5.75;2.63;;;;;;;27.26;29.58;96627.72;4980735;28;20090;-58
2021/06/02 10:05:43;;;;;;;5.78;2.55;;;;;;;27.79;26.85;96628.19;4975225;28;20042;-59
2021/06/02 10:08:11;;;;;;;7.90;2.50;;;;;;;27.52;27.90;96617.97;4973084;28;20061;-59
2021/06/02 10:10:40;;;;;;;6.97;2.15;;;;;;;27.95;27.99;96624.16;4971376;28;20437;-61
2021/06/02 10:13:08;;;;;;;8.32;2.10;;;;;;;27.41;28.61;96619.31;4970540;28;20043;-60
2021/06/02 10:15:39;;;;;;;6.85;2.17;;;;;;;27.25;28.76;96623.31;4979021;28;20137;-60
2021/06/02 10:18:31;;;;;;;5.18;2.45;;;;;;;28.08;29.77;96624.63;4975250;28;20054;-61
2021/06/02 10:20:57;;;;;;;5.28;2.47;;;;;;;27.85;30.35;96618.56;4977640;28;20046;-60
2021/06/02 10:23:25;;;;;;;6.95;2.50;;;;;;;27.40;29.85;96614.94;4966564;28;20516;-61
2021/06/02 10:25:51;;;;;;;4.47;2.50;;;;;;;26.28;32.53;96608.41;4976749;28;20065;-61
2021/06/02 10:28:18;;;;;;;6.47;2.47;;;;;;;26.04;32.45;96611.16;4967717;28;20085;-60
2021/06/02 10:30:43;;;;;;;8.55;2.15;;;;;;;26.39;32.59;96612.75;4980217;28;20109;-60
2021/06/02 10:33:09;;;;;;;5.90;2.33;;;;;;;26.96;32.26;96620.44;4957091;28;20039;-60
2021/06/02 10:35:34;;;;;;;6.30;2.45;;;;;;;26.47;33.06;96609.13;4960995;28;20057;-60
2021/06/02 10:38:00;;;;;;;5.20;2.40;;;;;;;25.75;35.29;96614.47;4962221;28;20043;-59
2021/06/02 10:40:28;;;;;;;5.53;2.20;;;;;;;26.32;34.08;96609.00;4973496;28;20493;-55
2021/06/02 10:43:17;;;;;;;5.43;2.65;;;;;;;26.23;34.25;96611.09;4958458;28;20547;-59
2021/06/02 10:46:02;;;;;;;7.40;2.50;;;;;;;25.95;33.94;96614.00;4962569;28;20043;-61
2021/06/02 10:48:47;;;;;;;8.15;2.83;;;;;;;25.31;35.06;96610.00;4965600;28;20608;-60
2021/06/02 10:51:39;;;;;;;7.05;2.70;;;;;;;25.76;34.85;96618.81;4976766;28;20106;-60
2021/06/02 10:54:12;;;;;;;15.82;3.30;;;;;;;25.89;34.33;96605.41;4966685;28;20049;-61
2021/06/02 10:56:42;;;;;;;6.22;2.60;;;;;;;25.72;34.49;96621.03;4977123;28;20035;-59
2021/06/02 10:59:26;;;;;;;4.90;2.80;;;;;;;25.56;35.64;96614.50;4965743;28;20077;-61
2021/06/02 11:02:15;;;;;;;3.80;2.33;;;;;;;25.78;35.17;96613.53;4976812;28;20129;-59
2021/06/02 11:04:55;;;;;;;5.47;2.53;;;;;;;26.06;33.56;96617.06;4986069;28;20050;-61
2021/06/02 11:07:21;;;;;;;9.73;2.30;;;;;;;25.97;34.67;96613.53;4980988;28;20232;-59
2021/06/02 11:10:05;;;;;;;7.65;3.47;;;;;;;25.39;35.41;96621.69;4985611;28;20042;-56
2021/06/02 11:12:49;;;;;;;6.95;3.25;;;;;;;25.02;36.03;96621.63;4989909;28;20054;-59
2021/06/02 11:15:30;;;;;;;8.23;2.58;;;;;;;24.89;35.78;96618.19;4977472;28;20088;-60
2021/06/02 11:18:11;;;;;;;4.60;2.30;;;;;;;24.85;35.17;96623.16;4983593;28;20511;-60
2021/06/02 11:20:45;;;;;;;4.63;2.67;;;;;;;25.38;33.79;96617.31;4977577;28;20042;-61
2021/06/02 11:23:14;;;;;;;4.05;2.13;;;;;;;24.81;34.12;96614.91;4980509;28;20104;-60
2021/06/02 11:25:40;;;;;;;5.40;2.38;;;;;;;24.73;38.11;96622.06;4985732;28;20068;-56
2021/06/02 11:28:07;;;;;;;4.72;3.00;;;;;;;24.81;37.88;96626.09;4975095;28;20038;-62
2021/06/02 11:30:33;;;;;;;4.43;2.78;;;;;;;24.79;39.45;96621.00;4966962;28;20047;-61
2021/06/02 11:33:07;;;;;;;5.40;2.75;;;;;;;24.81;40.63;96623.31;4975880;28;20399;-57
2021/06/02 11:35:59;;;;;;;7.53;5.00;;;;;;;24.88;36.74;96613.81;4973413;28;20082;-57
2021/06/02 11:38:26;;;;;;;6.30;3.63;;;;;;;25.47;37.41;96616.53;4961134;28;20073;-59
2021/06/02 11:40:53;;;;;;;4.93;3.22;;;;;;;25.79;37.33;96617.13;4979767;28;20049;-57
2021/06/02 11:43:20;;;;;;;6.53;3.25;;;;;;;26.01;35.45;96612.09;4959581;28;20135;-57
2021/06/02 11:45:49;;;;;;;9.05;2.70;;;;;;;26.12;33.99;96614.41;4965223;28;20392;-57
2021/06/02 11:48:22;;;;;;;7.53;2.28;;;;;;;26.40;33.45;96611.47;4971072;28;20512;-60
2021/06/02 11:50:48;;;;;;;3.40;2.03;;;;;;;26.70;34.17;96604.00;4976498;28;20057;-58
2021/06/02 11:53:14;;;;;;;5.07;2.28;;;;;;;26.62;33.42;96609.22;4977269;28;20454;-60
2021/06/02 11:55:40;;;;;;;5.20;2.10;;;;;;;26.19;33.76;96613.28;4976252;28;20072;-60
2021/06/02 11:58:05;;;;;;;4.68;1.88;;;;;;;26.55;33.97;96605.97;4978224;28;20134;-59
2021/06/02 12:00:35;;;;;;;4.53;2.13;;;;;;;26.47;33.33;96611.13;4981838;28;20047;-60
2021/06/02 12:03:11;;;;;;;6.05;2.20;;;;;;;26.80;31.69;96613.94;4982545;28;20154;-61
2021/06/02 12:05:42;;;;;;;3.15;1.77;;;;;;;26.58;31.13;96614.22;4972793;28;20142;-60
2021/06/02 12:08:08;;;;;;;2.92;1.67;;;;;;;26.61;30.15;96607.66;4976374;28;20042;-60
2021/06/02 12:10:42;;;;;;;3.17;1.80;;;;;;;26.06;31.29;96607.88;4983216;28;20046;-59
2021/06/02 12:13:14;;;;;;;3.28;1.73;;;;;;;26.32;32.35;96614.63;4974666;28;20041;-60
2021/06/02 12:15:43;;;;;;;2.97;1.80;;;;;;;26.60;31.92;96608.13;4983474;28;20039;-58